Terminal Aerodrome Forecast
Issued by NWS Charleston, WV

Current Version | Previous Version | Graphics & Text | Print | Product List | Glossary On
Versions: 1 2 3 4 5 6 7 8 9 10 11 12 13 14 15 16 17 18
973
FTUS41 KRLX 080901 AAB
TAFHTS
TAF AMD
KHTS 080901Z 0809/0906 20006KT P6SM BKN100
     FM081100 20005KT 3SM -RASN OVC025
     FM081200 20005KT 2SM -RASN OVC015
     FM081500 23005KT 3SM -RA OVC015
     FM081800 25006KT 6SM -RA OVC015=

USA.gov is the U.S. government's official web portal to all federal, state and local government web resources and services.